Time;durP1;ratioP1;P1;durP2;ratioP2;P2;SDS_P1;SDS_P2;PMS_P1;PMS_P2;Temp;Humidity;BMP_temperature;BMP_pressure;BME280_temperature;BME280_humidity;BME280_pressure;Samples;Min_cycle;Max_cycle;Signal;HPM_P1;HPM_P2
2022/12/09 00:01:15;;;;;;;101.90;58.38;;;;;;;13.86;78.63;100636.53;5051481;28;20036;-77
2022/12/09 00:03:41;;;;;;;90.78;50.70;;;;;;;13.82;78.88;100627.03;5050754;28;20032;-78
2022/12/09 00:06:10;;;;;;;105.53;55.75;;;;;;;13.88;78.66;100634.56;5048512;28;20045;-77
2022/12/09 00:08:36;;;;;;;83.03;47.58;;;;;;;13.85;78.36;100634.84;5050472;28;20504;-77
2022/12/09 00:11:01;;;;;;;88.70;49.08;;;;;;;13.81;78.40;100639.69;5050622;28;20048;-77
2022/12/09 00:13:28;;;;;;;98.07;48.50;;;;;;;13.79;78.19;100641.66;5050878;28;20028;-78
2022/12/09 00:15:54;;;;;;;86.22;50.10;;;;;;;13.54;78.61;100610.72;5051608;28;20044;-77
2022/12/09 00:18:19;;;;;;;99.60;49.70;;;;;;;13.03;78.83;100535.38;5050626;28;20024;-77
2022/12/09 00:20:44;;;;;;;93.60;48.83;;;;;;;13.70;79.08;100642.53;5050507;28;20115;-76
2022/12/09 00:23:10;;;;;;;82.95;47.17;;;;;;;13.64;79.13;100635.00;5053574;28;20029;-78
2022/12/09 00:25:35;;;;;;;92.43;55.85;;;;;;;13.71;78.96;100644.25;5051716;28;20033;-77
2022/12/09 00:28:01;;;;;;;95.35;53.65;;;;;;;13.66;78.69;100648.38;5051021;28;20037;-76
2022/12/09 00:30:26;;;;;;;93.13;52.40;;;;;;;13.61;78.61;100651.50;5050353;28;20025;-77
2022/12/09 00:32:52;;;;;;;91.95;51.53;;;;;;;13.55;78.67;100649.38;5050854;28;20017;-77
2022/12/09 00:35:17;;;;;;;89.85;51.80;;;;;;;13.45;78.82;100643.16;5050628;28;20032;-77
2022/12/09 00:37:42;;;;;;;80.63;47.35;;;;;;;13.17;78.75;100608.88;5050357;28;20033;-76
2022/12/09 00:40:08;;;;;;;91.70;51.25;;;;;;;13.31;79.40;100640.84;5056039;28;20033;-76
2022/12/09 00:42:34;;;;;;;74.40;44.80;;;;;;;13.14;79.54;100628.06;5058369;28;20036;-76
2022/12/09 00:44:59;;;;;;;93.15;49.10;;;;;;;13.21;79.90;100648.94;5054328;28;20055;-77
2022/12/09 00:47:24;;;;;;;86.95;47.35;;;;;;;13.18;80.02;100640.31;5054753;28;20503;-76
2022/12/09 00:49:50;;;;;;;77.53;44.22;;;;;;;13.08;80.33;100643.84;5051169;28;20032;-77
2022/12/09 00:52:15;;;;;;;90.55;48.88;;;;;;;12.84;80.61;100612.81;5050614;28;20041;-77
2022/12/09 00:54:41;;;;;;;87.72;46.92;;;;;;;12.96;80.49;100644.94;5049259;28;20037;-76
2022/12/09 00:57:06;;;;;;;80.43;45.03;;;;;;;12.97;80.72;100637.66;5049923;28;20036;-76
2022/12/09 00:59:31;;;;;;;99.55;50.22;;;;;;;12.83;81.00;100636.22;5049987;28;20036;-76
2022/12/09 01:01:57;;;;;;;89.15;47.03;;;;;;;12.85;81.26;100645.03;5049644;28;20064;-76
2022/12/09 01:04:23;;;;;;;102.60;53.25;;;;;;;12.67;81.52;100616.16;5050069;28;20021;-76
2022/12/09 01:06:49;;;;;;;74.80;44.83;;;;;;;12.82;81.47;100631.81;5049364;28;20033;-76
2022/12/09 01:09:15;;;;;;;78.07;43.47;;;;;;;12.75;81.74;100638.75;5049404;28;20028;-76
2022/12/09 01:11:40;;;;;;;86.05;48.35;;;;;;;12.61;82.38;100625.66;5050077;28;20485;-78
2022/12/09 01:14:06;;;;;;;93.35;54.03;;;;;;;12.74;82.73;100634.38;5054257;28;20021;-79
2022/12/09 01:16:33;;;;;;;95.00;54.00;;;;;;;12.61;82.97;100630.19;5054854;28;20044;-77
2022/12/09 01:19:01;;;;;;;103.18;56.67;;;;;;;12.72;83.55;100636.34;5049905;28;20031;-77
2022/12/09 01:21:28;;;;;;;79.38;46.92;;;;;;;12.83;83.64;100641.63;5049432;28;20451;-77
2022/12/09 01:23:53;;;;;;;82.93;47.65;;;;;;;12.79;83.74;100645.59;5049669;28;20495;-77
2022/12/09 01:26:19;;;;;;;88.30;49.22;;;;;;;12.71;83.88;100614.91;5049722;28;20032;-77
2022/12/09 01:28:45;;;;;;;89.25;48.22;;;;;;;12.89;83.87;100641.06;5049641;28;20106;-76
2022/12/09 01:31:14;;;;;;;97.30;55.03;;;;;;;13.04;83.63;100644.22;5049975;28;20086;-76
2022/12/09 01:33:40;;;;;;;91.95;52.78;;;;;;;12.94;83.79;100630.69;5049609;28;20035;-77
2022/12/09 01:36:12;;;;;;;88.68;47.85;;;;;;;13.15;83.79;100646.00;5049547;28;20037;-76
2022/12/09 01:38:38;;;;;;;79.40;45.85;;;;;;;13.06;83.98;100634.97;5048861;28;20079;-76
2022/12/09 01:41:04;;;;;;;79.55;44.83;;;;;;;13.01;83.62;100621.06;5049695;28;20060;-78
2022/12/09 01:43:29;;;;;;;80.88;42.50;;;;;;;13.05;83.56;100640.53;5051857;28;20025;-75
2022/12/09 01:45:55;;;;;;;74.47;39.83;;;;;;;13.10;83.53;100635.59;5053919;28;20033;-77
2022/12/09 01:48:23;;;;;;;74.63;38.42;;;;;;;13.09;84.08;100626.63;5054536;28;20041;-75
2022/12/09 01:50:59;;;;;;;72.53;35.15;;;;;;;13.20;84.55;100628.34;5049777;28;20067;-76
2022/12/09 01:53:33;;;;;;;69.80;36.17;;;;;;;13.28;84.53;100619.53;5049953;28;20033;-76
2022/12/09 01:56:04;;;;;;;73.47;36.67;;;;;;;13.40;84.55;100626.50;5049418;28;20099;-76
2022/12/09 01:58:30;;;;;;;69.18;32.28;;;;;;;13.46;84.54;100629.47;5049264;28;20025;-77
2022/12/09 02:00:55;;;;;;;69.90;32.47;;;;;;;13.51;84.63;100620.97;5048707;28;20499;-76
2022/12/09 02:03:21;;;;;;;72.38;34.70;;;;;;;13.56;84.45;100624.06;5049510;28;20364;-76
2022/12/09 02:05:46;;;;;;;72.35;33.25;;;;;;;13.40;83.95;100596.78;5050240;28;20029;-76
2022/12/09 02:08:15;;;;;;;71.90;33.30;;;;;;;13.64;83.78;100629.59;5053583;28;20031;-76
2022/12/09 02:11:12;;;;;;;60.05;30.63;;;;;;;13.68;83.64;100628.31;5053886;28;20135;-77
2022/12/09 02:13:38;;;;;;;69.22;33.25;;;;;;;13.71;83.26;100633.44;5010638;28;20292;-77
2022/12/09 02:16:08;;;;;;;58.22;30.80;;;;;;;13.73;83.02;100642.25;5010929;28;20117;-78
2022/12/09 02:18:52;;;;;;;67.75;32.50;;;;;;;13.73;82.88;100641.41;5010374;28;20041;-77
2022/12/09 02:21:30;;;;;;;58.55;30.60;;;;;;;13.74;82.61;100643.97;5010563;28;20535;-78
2022/12/09 02:24:20;;;;;;;74.35;34.65;;;;;;;13.77;82.38;100643.66;5010316;28;20041;-77
2022/12/09 02:27:33;;;;;;;66.63;33.47;;;;;;;13.70;82.17;100642.53;5010746;28;20421;-76
2022/12/09 02:30:13;;;;;;;82.07;31.77;;;;;;;13.71;82.02;100646.94;5010723;28;20025;-76
2022/12/09 02:33:12;;;;;;;68.28;33.55;;;;;;;13.68;82.22;100633.72;5010523;28;20480;-76
2022/12/09 02:35:44;;;;;;;60.35;32.97;;;;;;;13.63;82.02;100625.22;4952230;29;20631;-77
2022/12/09 02:38:15;;;;;;;70.22;33.67;;;;;;;13.62;82.36;100615.38;4952215;29;20039;-77
2022/12/09 02:41:18;;;;;;;78.90;33.45;;;;;;;13.67;81.78;100604.97;4951851;29;20054;-76
2022/12/09 02:43:58;;;;;;;72.57;34.03;;;;;;;13.67;81.63;100618.50;4894637;29;20477;-77
2022/12/09 02:46:26;;;;;;;75.97;33.30;;;;;;;13.62;81.47;100609.97;4896254;29;20607;-77
2022/12/09 02:48:57;;;;;;;72.82;34.53;;;;;;;13.59;81.42;100597.63;4895066;29;20044;-77
2022/12/09 02:51:26;;;;;;;79.28;34.65;;;;;;;13.57;81.66;100610.44;4913311;29;20060;-76
2022/12/09 02:53:57;;;;;;;77.78;37.67;;;;;;;13.57;81.94;100620.38;4917246;29;20043;-77
2022/12/09 02:56:23;;;;;;;73.57;38.45;;;;;;;13.41;81.67;100587.69;4914286;29;20036;-77
2022/12/09 02:58:49;;;;;;;88.35;36.47;;;;;;;13.54;81.95;100623.38;4913438;29;20566;-79
2022/12/09 03:01:21;;;;;;;92.95;44.50;;;;;;;13.55;81.60;100612.41;4913820;29;20068;-76
2022/12/09 03:03:47;;;;;;;91.60;43.60;;;;;;;13.28;81.82;100587.13;4916238;29;20024;-77
2022/12/09 03:06:17;;;;;;;86.45;45.33;;;;;;;13.42;81.58;100594.81;4914630;29;20508;-76
2022/12/09 03:08:48;;;;;;;107.97;47.63;;;;;;;13.33;81.51;100563.25;4913712;29;20622;-76
2022/12/09 03:11:19;;;;;;;89.37;44.80;;;;;;;13.28;81.24;100557.41;4915615;29;20040;-76
2022/12/09 03:14:08;;;;;;;100.38;46.35;;;;;;;13.56;80.96;100618.66;4992543;28;20565;-77
2022/12/09 03:16:52;;;;;;;82.75;41.70;;;;;;;13.52;80.65;100615.41;4989823;28;20038;-77
2022/12/09 03:19:21;;;;;;;86.32;41.53;;;;;;;13.50;81.04;100630.06;4978019;28;20034;-76
2022/12/09 03:21:50;;;;;;;94.22;42.00;;;;;;;13.48;81.35;100623.94;5050327;28;20377;-76
2022/12/09 03:24:31;;;;;;;95.20;40.30;;;;;;;13.44;81.09;100620.69;5051995;28;20032;-76
2022/12/09 03:27:01;;;;;;;92.38;40.70;;;;;;;13.41;81.12;100620.09;5051574;28;20036;-77
2022/12/09 03:29:31;;;;;;;107.32;42.58;;;;;;;13.47;80.82;100631.19;5051797;28;20111;-76
2022/12/09 03:31:57;;;;;;;90.22;41.95;;;;;;;13.54;80.84;100642.28;5051538;28;20075;-77
2022/12/09 03:34:29;;;;;;;84.63;38.67;;;;;;;13.47;80.49;100641.16;5051625;28;20102;-77
2022/12/09 03:36:56;;;;;;;83.13;38.40;;;;;;;13.43;80.87;100645.13;5051339;28;20099;-77
2022/12/09 03:39:26;;;;;;;88.03;38.42;;;;;;;13.52;80.50;100649.66;5048988;28;20037;-77
2022/12/09 03:41:58;;;;;;;77.00;37.33;;;;;;;13.52;80.44;100649.66;5051693;28;20051;-76
2022/12/09 03:44:38;;;;;;;107.90;41.60;;;;;;;13.54;80.22;100653.09;5051432;28;20099;-76
2022/12/09 03:47:05;;;;;;;86.13;41.50;;;;;;;13.56;80.06;100651.09;5051390;28;20401;-76
2022/12/09 03:49:31;;;;;;;96.90;42.90;;;;;;;13.54;79.79;100642.28;5051262;28;20041;-77
2022/12/09 03:52:09;;;;;;;86.57;45.20;;;;;;;13.57;79.84;100647.41;5048905;28;20475;-77
2022/12/09 03:54:43;;;;;;;104.00;46.60;;;;;;;13.52;79.93;100649.66;5055263;28;20512;-77
2022/12/09 03:57:12;;;;;;;99.82;45.40;;;;;;;13.50;79.95;100651.66;5061084;28;20032;-76
2022/12/09 03:59:38;;;;;;;83.35;41.15;;;;;;;13.48;79.80;100654.53;5059157;28;20032;-77
2022/12/09 04:02:05;;;;;;;76.82;37.38;;;;;;;13.45;80.17;100654.81;5051119;28;20029;-76
2022/12/09 04:04:32;;;;;;;88.65;38.97;;;;;;;13.44;80.10;100658.50;5050974;28;20112;-74
2022/12/09 04:06:58;;;;;;;83.80;36.70;;;;;;;13.43;80.16;100662.19;5050782;28;20692;-76
2022/12/09 04:09:23;;;;;;;83.88;36.05;;;;;;;13.40;80.26;100650.81;5051036;28;20025;-76
2022/12/09 04:11:49;;;;;;;77.60;35.47;;;;;;;13.40;80.03;100648.97;5050663;28;20357;-76
2022/12/09 04:14:15;;;;;;;78.13;35.80;;;;;;;13.44;79.94;100652.25;5050341;28;20025;-75
2022/12/09 04:16:40;;;;;;;86.43;35.97;;;;;;;13.44;80.00;100646.84;5050330;28;20076;-75
2022/12/09 04:19:06;;;;;;;75.95;33.63;;;;;;;13.44;79.96;100654.94;5050204;28;20033;-76
2022/12/09 04:21:31;;;;;;;77.57;33.75;;;;;;;13.47;79.93;100650.13;5050431;28;20036;-75
2022/12/09 04:23:57;;;;;;;78.13;31.70;;;;;;;13.47;79.57;100646.53;5049929;28;20546;-75
2022/12/09 04:26:22;;;;;;;72.93;32.47;;;;;;;13.45;79.56;100660.22;5050553;28;20212;-74
2022/12/09 04:28:49;;;;;;;74.35;32.65;;;;;;;13.26;79.53;100616.13;5048952;28;20144;-75
2022/12/09 04:31:16;;;;;;;71.90;30.98;;;;;;;13.47;79.29;100654.66;5050213;28;20021;-77
2022/12/09 04:33:42;;;;;;;76.00;29.95;;;;;;;13.28;78.91;100624.94;5050217;28;20029;-75
2022/12/09 04:36:11;;;;;;;72.13;28.30;;;;;;;13.39;78.87;100643.72;5051879;28;20052;-75
2022/12/09 04:38:36;;;;;;;70.60;28.45;;;;;;;13.23;78.96;100624.50;5050489;28;20035;-75
2022/12/09 04:41:02;;;;;;;72.35;28.92;;;;;;;13.46;79.19;100653.78;5050082;28;20509;-75
2022/12/09 04:43:28;;;;;;;64.95;29.33;;;;;;;13.38;78.88;100642.00;5049829;28;20485;-75
2022/12/09 04:45:59;;;;;;;68.85;29.45;;;;;;;13.42;78.74;100651.53;5049999;28;20085;-76
2022/12/09 04:48:25;;;;;;;65.43;26.17;;;;;;;13.39;78.80;100651.81;5050273;28;20483;-75
2022/12/09 04:50:50;;;;;;;63.53;25.33;;;;;;;13.19;79.09;100609.56;5051044;28;20136;-75
2022/12/09 04:53:15;;;;;;;80.38;28.48;;;;;;;13.42;78.86;100643.44;5053400;28;20130;-75
2022/12/09 04:55:41;;;;;;;79.32;30.50;;;;;;;13.42;78.84;100654.25;5053103;28;20416;-75
2022/12/09 04:58:06;;;;;;;78.35;30.27;;;;;;;13.37;78.93;100651.09;5067167;28;20029;-74
2022/12/09 05:00:32;;;;;;;68.93;28.23;;;;;;;13.37;79.04;100656.50;5065055;28;20415;-76
2022/12/09 05:02:57;;;;;;;57.08;27.50;;;;;;;13.42;79.18;100659.66;5058213;28;20080;-76
2022/12/09 05:05:22;;;;;;;76.45;29.40;;;;;;;13.41;78.87;100660.63;5053112;28;20489;-76
2022/12/09 05:07:48;;;;;;;56.70;26.70;;;;;;;13.39;78.80;100659.94;5049779;28;20476;-76
2022/12/09 05:10:13;;;;;;;79.55;29.63;;;;;;;13.23;78.71;100621.81;5049909;28;20028;-76
2022/12/09 05:12:39;;;;;;;75.35;29.27;;;;;;;13.48;78.58;100659.06;5049663;28;20032;-76
2022/12/09 05:15:05;;;;;;;85.55;30.65;;;;;;;13.55;78.17;100665.59;5049856;28;20036;-76
2022/12/09 05:17:30;;;;;;;74.40;28.70;;;;;;;13.59;77.75;100667.03;5049412;28;20158;-76
2022/12/09 05:19:56;;;;;;;66.13;25.17;;;;;;;13.59;77.53;100667.88;5049371;28;20053;-76
2022/12/09 05:22:21;;;;;;;76.75;25.02;;;;;;;13.48;77.18;100659.06;5049459;28;20036;-78
2022/12/09 05:24:47;;;;;;;64.38;24.45;;;;;;;13.53;77.26;100659.50;5049660;28;20040;-76
2022/12/09 05:27:14;;;;;;;66.43;26.70;;;;;;;13.50;77.30;100665.19;5047057;28;20044;-77
2022/12/09 05:29:39;;;;;;;62.90;25.63;;;;;;;13.48;77.22;100669.88;5049145;28;20033;-76
2022/12/09 05:32:06;;;;;;;65.07;23.42;;;;;;;13.53;77.31;100673.00;5049439;28;20036;-77
2022/12/09 05:34:31;;;;;;;58.22;24.77;;;;;;;13.42;77.03;100649.66;5049425;28;20036;-77
2022/12/09 05:36:56;;;;;;;63.72;27.08;;;;;;;13.58;76.75;100679.69;5049247;28;20357;-75
2022/12/09 05:39:22;;;;;;;73.85;28.58;;;;;;;13.43;76.86;100655.94;5048557;28;20064;-74
2022/12/09 05:41:48;;;;;;;56.20;26.30;;;;;;;13.59;76.97;100684.09;5049253;28;20024;-75
2022/12/09 05:44:13;;;;;;;63.65;28.42;;;;;;;13.61;76.57;100673.97;5049111;28;20112;-75
2022/12/09 05:46:39;;;;;;;59.92;26.23;;;;;;;13.70;76.54;100685.78;5063261;28;20493;-75
2022/12/09 05:49:05;;;;;;;56.42;27.02;;;;;;;13.73;76.16;100695.47;5049154;28;20520;-74
2022/12/09 05:51:31;;;;;;;61.75;27.25;;;;;;;13.79;75.91;100687.63;5048742;28;20418;-73
2022/12/09 05:53:59;;;;;;;84.45;31.25;;;;;;;13.83;75.91;100702.56;5047624;28;20036;-75
2022/12/09 05:56:25;;;;;;;66.97;29.38;;;;;;;13.80;75.68;100686.63;5049049;28;20071;-75
2022/12/09 05:58:51;;;;;;;76.10;30.88;;;;;;;13.81;75.64;100704.56;5049209;28;20551;-76
2022/12/09 06:01:18;;;;;;;79.63;32.75;;;;;;;13.71;75.61;100698.31;5053688;28;20040;-78
2022/12/09 06:03:46;;;;;;;73.03;33.17;;;;;;;13.70;75.88;100701.16;5051541;28;20025;-77
2022/12/09 06:06:15;;;;;;;75.25;33.20;;;;;;;13.68;76.16;100697.72;5052006;28;20033;-76
2022/12/09 06:08:42;;;;;;;86.03;33.10;;;;;;;13.70;76.28;100701.16;5048843;28;20056;-74
2022/12/09 06:11:19;;;;;;;74.90;29.50;;;;;;;13.58;76.13;100665.31;5048868;28;20033;-80
2022/12/09 06:13:46;;;;;;;77.35;33.72;;;;;;;13.85;76.13;100710.56;5049686;28;20099;-77
2022/12/09 06:16:13;;;;;;;70.57;32.95;;;;;;;13.90;76.01;100716.38;5049361;28;20533;-78
2022/12/09 06:18:38;;;;;;;83.75;33.70;;;;;;;13.97;75.82;100723.78;5049149;28;20076;-77
2022/12/09 06:21:10;;;;;;;84.22;34.45;;;;;;;14.06;75.44;100722.03;5048615;28;20032;-75
2022/12/09 06:23:37;;;;;;;88.75;36.92;;;;;;;14.08;75.16;100710.09;5046828;28;20561;-75
2022/12/09 06:26:03;;;;;;;87.75;33.75;;;;;;;14.23;74.89;100712.31;5047917;28;20519;-74
2022/12/09 06:28:30;;;;;;;94.15;33.67;;;;;;;14.26;74.49;100725.56;5048099;28;20033;-74
2022/12/09 06:30:58;;;;;;;72.50;30.80;;;;;;;14.27;74.51;100722.72;5045814;28;20032;-75
2022/12/09 06:33:24;;;;;;;73.75;30.67;;;;;;;14.37;74.32;100733.56;5048257;28;20032;-75
2022/12/09 06:35:49;;;;;;;83.13;33.92;;;;;;;14.39;74.17;100721.56;5048130;28;20020;-75
2022/12/09 06:38:15;;;;;;;77.38;31.38;;;;;;;14.15;73.84;100669.78;5048016;28;20024;-76
2022/12/09 06:40:41;;;;;;;93.13;33.72;;;;;;;14.58;73.58;100721.53;5048177;28;20029;-74
2022/12/09 06:43:07;;;;;;;87.78;34.17;;;;;;;14.64;73.47;100712.81;5047917;28;20025;-75
2022/12/09 06:45:34;;;;;;;106.25;30.55;;;;;;;14.53;73.30;100685.03;5047972;28;20087;-75
2022/12/09 06:48:00;;;;;;;73.80;27.85;;;;;;;14.77;72.69;100715.16;5048472;28;20476;-76
2022/12/09 06:50:25;;;;;;;57.42;26.23;;;;;;;14.86;72.26;100733.19;5048026;28;20052;-75
2022/12/09 06:52:51;;;;;;;65.20;27.45;;;;;;;14.88;71.99;100744.75;5051090;28;20021;-75
2022/12/09 06:55:16;;;;;;;59.97;26.17;;;;;;;14.92;72.01;100740.72;5051681;28;20029;-76
2022/12/09 06:57:41;;;;;;;59.75;26.58;;;;;;;14.97;71.66;100741.16;5051769;28;20095;-75
2022/12/09 07:00:07;;;;;;;72.28;27.23;;;;;;;15.00;71.56;100748.97;5051659;28;20048;-77
2022/12/09 07:02:33;;;;;;;54.65;24.90;;;;;;;15.05;71.71;100740.38;5050348;28;20017;-75
2022/12/09 07:04:59;;;;;;;77.18;27.67;;;;;;;15.17;71.47;100742.75;5066115;28;20126;-74
2022/12/09 07:07:24;;;;;;;63.42;26.00;;;;;;;14.98;71.25;100723.88;5053909;28;20029;-75
2022/12/09 07:09:50;;;;;;;74.20;27.38;;;;;;;15.23;70.90;100749.41;5056498;28;20036;-74
2022/12/09 07:12:16;;;;;;;75.95;28.90;;;;;;;15.24;70.49;100751.97;5051406;28;20064;-75
2022/12/09 07:14:41;;;;;;;81.65;28.52;;;;;;;15.33;70.58;100754.78;5051595;28;20036;-75
2022/12/09 07:17:07;;;;;;;78.68;27.48;;;;;;;15.18;70.25;100724.63;5051484;28;20037;-75
2022/12/09 07:19:32;;;;;;;57.53;27.48;;;;;;;15.41;70.04;100746.75;5051635;28;20029;-76
2022/12/09 07:21:58;;;;;;;78.03;28.70;;;;;;;15.38;70.41;100761.44;5051107;28;20056;-76
2022/12/09 07:24:24;;;;;;;62.80;29.63;;;;;;;15.32;70.38;100742.25;5051600;28;20468;-75
2022/12/09 07:26:50;;;;;;;60.78;29.55;;;;;;;15.42;70.06;100762.84;5051998;28;20036;-76
2022/12/09 07:29:17;;;;;;;61.20;30.27;;;;;;;15.25;69.60;100721.16;5051532;28;20033;-75
2022/12/09 07:31:43;;;;;;;83.47;31.65;;;;;;;15.44;69.94;100768.13;5051685;28;20025;-77
2022/12/09 07:34:10;;;;;;;67.22;32.17;;;;;;;15.53;69.95;100767.25;5051079;28;20036;-76
2022/12/09 07:36:36;;;;;;;69.72;32.75;;;;;;;15.59;69.65;100775.63;5051328;28;20029;-75
2022/12/09 07:39:13;;;;;;;83.22;33.67;;;;;;;15.55;69.07;100792.31;5050931;28;20548;-76
2022/12/09 07:41:39;;;;;;;78.90;29.40;;;;;;;15.58;69.44;100775.75;5050962;28;20411;-76
2022/12/09 07:44:05;;;;;;;69.10;31.70;;;;;;;15.75;69.13;100774.91;5050706;28;20107;-75
2022/12/09 07:46:30;;;;;;;74.82;34.92;;;;;;;15.88;68.62;100778.09;5050762;28;20049;-75
2022/12/09 07:48:56;;;;;;;81.90;36.15;;;;;;;15.90;68.30;100770.63;5050845;28;20223;-76
2022/12/09 07:51:23;;;;;;;100.95;41.20;;;;;;;15.95;68.50;100773.75;5049286;28;20048;-75
2022/12/09 07:53:48;;;;;;;78.90;37.17;;;;;;;15.98;68.28;100768.03;5050583;28;20162;-75
2022/12/09 07:56:15;;;;;;;101.78;38.28;;;;;;;16.06;68.02;100770.78;5050525;28;20078;-77
2022/12/09 07:58:43;;;;;;;87.97;39.35;;;;;;;15.89;68.21;100733.69;5065204;28;20041;-75
2022/12/09 08:01:11;;;;;;;103.10;39.47;;;;;;;16.12;67.99;100769.31;5050459;28;20032;-75
2022/12/09 08:03:38;;;;;;;81.97;37.42;;;;;;;16.17;68.02;100765.16;5050233;28;20027;-75
2022/12/09 08:06:05;;;;;;;75.93;35.50;;;;;;;16.15;67.83;100767.13;5050580;28;20059;-75
2022/12/09 08:08:31;;;;;;;82.00;35.20;;;;;;;16.19;67.57;100771.25;5052190;28;20017;-77
2022/12/09 08:11:14;;;;;;;73.72;29.75;;;;;;;16.22;66.83;100761.94;5055053;28;20039;-75
2022/12/09 08:13:43;;;;;;;71.88;27.63;;;;;;;16.24;66.30;100762.63;5055062;28;20480;-74
2022/12/09 08:16:12;;;;;;;98.10;27.90;;;;;;;16.25;66.58;100765.19;5049780;28;20029;-74
2022/12/09 08:18:38;;;;;;;77.68;27.88;;;;;;;16.34;65.91;100764.25;5050339;28;20018;-75
2022/12/09 08:21:06;;;;;;;84.70;29.10;;;;;;;16.31;65.61;100764.56;5050088;28;20112;-76
2022/12/09 08:23:31;;;;;;;90.57;30.98;;;;;;;15.98;66.06;100738.19;5050168;28;20021;-74
2022/12/09 08:25:58;;;;;;;79.15;30.40;;;;;;;16.26;65.65;100761.47;5050090;28;20526;-75
2022/12/09 08:28:25;;;;;;;78.38;29.92;;;;;;;16.32;66.06;100763.56;5049942;28;20031;-74
2022/12/09 08:30:50;;;;;;;74.85;31.95;;;;;;;16.39;65.50;100754.78;5050106;28;20044;-76
2022/12/09 08:33:16;;;;;;;83.30;28.58;;;;;;;16.42;64.60;100759.91;5049777;28;20108;-75
2022/12/09 08:35:42;;;;;;;77.60;25.08;;;;;;;16.43;64.89;100756.16;5049903;28;20036;-76
2022/12/09 08:38:08;;;;;;;86.13;27.40;;;;;;;16.37;64.72;100748.63;5049561;28;20112;-75
2022/12/09 08:40:34;;;;;;;76.57;25.85;;;;;;;16.47;64.75;100762.97;5049727;28;20120;-75
2022/12/09 08:43:07;;;;;;;74.55;23.80;;;;;;;16.45;64.68;100763.13;5049339;28;20029;-76
2022/12/09 08:45:37;;;;;;;99.88;29.05;;;;;;;16.59;64.59;100764.44;5049557;28;20119;-76
2022/12/09 08:48:03;;;;;;;95.65;26.77;;;;;;;16.73;64.04;100763.84;5049657;28;20056;-75
2022/12/09 08:50:29;;;;;;;74.38;24.90;;;;;;;16.83;63.61;100748.28;5049987;28;20067;-74
2022/12/09 08:52:55;;;;;;;72.18;22.20;;;;;;;16.98;63.16;100745.81;5049631;28;20036;-75
2022/12/09 08:55:20;;;;;;;54.72;21.92;;;;;;;16.87;62.95;100711.63;5049885;28;20082;-75
2022/12/09 08:57:46;;;;;;;56.47;20.00;;;;;;;17.14;61.71;100729.56;5049694;28;20469;-76
2022/12/09 09:00:12;;;;;;;56.75;19.45;;;;;;;17.20;61.19;100724.34;5048065;28;20033;-76
2022/12/09 09:02:37;;;;;;;51.03;19.88;;;;;;;17.13;61.19;100726.00;5049468;28;20500;-75
2022/12/09 09:05:03;;;;;;;61.15;20.85;;;;;;;17.28;61.34;100729.78;5049233;28;20043;-75
2022/12/09 09:07:29;;;;;;;69.95;18.52;;;;;;;17.42;61.11;100734.59;5049346;28;20723;-75
2022/12/09 09:09:55;;;;;;;58.10;19.23;;;;;;;17.55;60.30;100733.28;5049058;28;20064;-75
2022/12/09 09:12:20;;;;;;;61.08;20.63;;;;;;;17.48;60.32;100703.16;5050942;28;20060;-74
2022/12/09 09:14:45;;;;;;;55.10;19.13;;;;;;;17.69;59.06;100730.75;5053660;28;20570;-76
2022/12/09 09:17:11;;;;;;;58.13;17.88;;;;;;;17.62;58.62;100727.00;5053379;28;20082;-75
2022/12/09 09:19:36;;;;;;;55.65;17.83;;;;;;;17.62;58.81;100723.44;5049220;28;20541;-76
2022/12/09 09:22:02;;;;;;;67.63;20.55;;;;;;;17.63;59.04;100719.69;5048860;28;20029;-75
2022/12/09 09:24:27;;;;;;;55.67;17.65;;;;;;;17.71;59.00;100727.84;5048873;28;20021;-75
2022/12/09 09:26:53;;;;;;;57.50;19.35;;;;;;;17.59;58.51;100691.13;5048810;28;20029;-75
2022/12/09 09:29:20;;;;;;;72.50;18.35;;;;;;;17.82;58.76;100719.38;5047615;28;20064;-75
2022/12/09 09:31:48;;;;;;;52.60;18.90;;;;;;;17.89;58.56;100725.81;5049020;28;20036;-75
2022/12/09 09:34:16;;;;;;;61.97;17.63;;;;;;;18.00;58.13;100711.03;5048724;28;20029;-75
2022/12/09 09:36:42;;;;;;;56.20;17.70;;;;;;;18.07;57.45;100707.44;5048546;28;20021;-76
2022/12/09 09:39:08;;;;;;;58.15;18.05;;;;;;;18.13;57.36;100706.81;5048689;28;20044;-75
2022/12/09 09:41:39;;;;;;;48.28;19.58;;;;;;;18.17;57.65;100707.28;5048649;28;20033;-76
2022/12/09 09:44:14;;;;;;;58.63;19.58;;;;;;;18.28;57.34;100705.09;5048989;28;20029;-75
2022/12/09 09:46:44;;;;;;;53.08;19.67;;;;;;;18.23;57.38;100704.72;5048436;28;20079;-75
2022/12/09 09:49:15;;;;;;;62.63;21.45;;;;;;;18.20;57.28;100687.88;5048686;28;20039;-75
2022/12/09 09:51:41;;;;;;;54.45;21.05;;;;;;;18.29;57.13;100706.75;5048862;28;20052;-76
2022/12/09 09:54:11;;;;;;;70.15;21.02;;;;;;;18.22;57.11;100700.31;5065686;28;20028;-74
2022/12/09 09:56:41;;;;;;;50.78;20.95;;;;;;;18.20;57.46;100702.34;5065892;28;20056;-75
2022/12/09 09:59:38;;;;;;;55.72;21.13;;;;;;;18.04;57.52;100679.75;5048882;28;20094;-74
2022/12/09 10:02:31;;;;;;;61.45;21.73;;;;;;;18.25;57.69;100705.44;5065847;28;20035;-76
2022/12/09 10:05:11;;;;;;;55.90;20.50;;;;;;;18.13;58.08;100685.03;5065294;28;20107;-75
2022/12/09 10:07:40;;;;;;;69.65;24.33;;;;;;;18.22;57.92;100705.78;5065798;28;20122;-76
2022/12/09 10:10:29;;;;;;;74.03;24.38;;;;;;;18.27;58.04;100702.50;5065830;28;20504;-75
2022/12/09 10:12:58;;;;;;;68.28;25.60;;;;;;;18.37;58.14;100695.88;5068442;28;20037;-75
2022/12/09 10:15:29;;;;;;;66.47;24.70;;;;;;;18.44;57.82;100696.84;5068018;28;20040;-75
2022/12/09 10:18:24;;;;;;;63.90;25.17;;;;;;;18.35;58.00;100686.16;5069580;28;20113;-75
2022/12/09 10:20:50;;;;;;;81.35;25.05;;;;;;;18.41;57.50;100677.28;5028663;28;20568;-76
2022/12/09 10:23:16;;;;;;;79.78;24.40;;;;;;;18.47;57.43;100666.53;5025646;28;20038;-75
2022/12/09 10:25:54;;;;;;;79.50;25.05;;;;;;;18.65;57.01;100676.41;5011099;28;20049;-75
2022/12/09 10:28:34;;;;;;;78.15;25.23;;;;;;;18.73;56.94;100676.38;5010063;28;20061;-75
2022/12/09 10:30:59;;;;;;;87.28;25.05;;;;;;;18.82;56.49;100672.59;5009746;28;20057;-75
2022/12/09 10:33:35;;;;;;;69.28;25.25;;;;;;;18.73;56.17;100641.81;5009979;28;20069;-76
2022/12/09 10:36:02;;;;;;;79.80;25.42;;;;;;;18.94;56.15;100657.56;5009966;28;20034;-75
2022/12/09 10:38:29;;;;;;;77.95;26.40;;;;;;;18.92;56.05;100652.28;5009722;28;20042;-76
2022/12/09 10:41:12;;;;;;;46.38;22.33;;;;;;;18.88;55.77;100658.25;5009595;28;20104;-75
2022/12/09 10:43:42;;;;;;;66.05;23.52;;;;;;;18.95;55.28;100653.81;5009668;28;20034;-76
2022/12/09 10:46:25;;;;;;;64.15;22.92;;;;;;;18.78;55.21;100619.47;4993348;28;20504;-76
2022/12/09 10:48:57;;;;;;;73.57;26.60;;;;;;;18.98;55.12;100646.13;5010820;28;20048;-74
2022/12/09 10:51:33;;;;;;;74.83;25.90;;;;;;;18.98;55.41;100648.00;5011198;28;20552;-75
2022/12/09 10:54:04;;;;;;;96.40;28.42;;;;;;;19.03;55.20;100642.84;5010591;28;20068;-76
2022/12/09 10:56:34;;;;;;;52.55;20.63;;;;;;;19.07;55.37;100651.53;5011046;28;20065;-76
2022/12/09 10:59:16;;;;;;;59.00;22.23;;;;;;;19.15;54.85;100644.13;5052309;28;20029;-75
2022/12/09 11:02:01;;;;;;;90.80;25.67;;;;;;;19.09;54.74;100633.94;5050044;28;20053;-75
2022/12/09 11:04:34;;;;;;;75.68;29.95;;;;;;;18.64;56.39;100595.69;5051309;28;20494;-74
2022/12/09 11:07:11;;;;;;;64.80;28.48;;;;;;;18.57;57.65;100641.00;5051440;28;20036;-75
2022/12/09 11:09:38;;;;;;;71.10;29.23;;;;;;;18.43;58.31;100629.81;5051417;28;20040;-75
2022/12/09 11:12:06;;;;;;;82.20;29.38;;;;;;;17.98;58.78;100588.72;5051497;28;20039;-74
2022/12/09 11:14:52;;;;;;;69.43;28.65;;;;;;;18.27;59.06;100627.13;5051296;28;20083;-75
2022/12/09 11:17:23;;;;;;;68.13;26.75;;;;;;;18.20;58.94;100619.81;5051222;28;20017;-76